createdAt,value
2022-10-03T00:02:10.688Z,99078.25
2022-10-03T00:05:00.149Z,99074.53
2022-10-03T00:07:58.054Z,99080.13
2022-10-03T00:10:48.222Z,99080.13
2022-10-03T00:13:20.251Z,99083.81
2022-10-03T00:15:50.374Z,99083.00
2022-10-03T00:18:34.323Z,99089.94
2022-10-03T00:21:25.429Z,99082.53
2022-10-03T00:24:14.865Z,99091.59
2022-10-03T00:27:18.708Z,99086.78
2022-10-03T00:30:01.412Z,99091.06
2022-10-03T00:32:49.018Z,99098.00
2022-10-03T00:35:39.206Z,99105.28
2022-10-03T00:38:36.610Z,99092.78
2022-10-03T00:41:06.188Z,99095.72
2022-10-03T00:43:47.281Z,99098.66
2022-10-03T00:46:20.843Z,99107.72
2022-10-03T00:48:47.377Z,99102.38
2022-10-03T00:51:38.261Z,99104.72
2022-10-03T00:54:30.318Z,99103.34
2022-10-03T00:57:14.931Z,99104.41
2022-10-03T01:00:01.884Z,99103.84
2022-10-03T01:02:55.538Z,99105.94
2022-10-03T01:05:31.619Z,99107.50
2022-10-03T01:08:19.081Z,99111.47
2022-10-03T01:10:58.045Z,99108.78
2022-10-03T01:13:39.510Z,99106.38
2022-10-03T01:16:27.487Z,99105.56
2022-10-03T01:19:03.586Z,99111.13
2022-10-03T01:21:47.689Z,99113.81
2022-10-03T01:24:32.584Z,99120.19
2022-10-03T01:27:13.579Z,99119.94
2022-10-03T01:30:02.167Z,99111.72
2022-10-03T01:33:02.885Z,99116.78
2022-10-03T01:35:54.146Z,99125.59
2022-10-03T01:38:20.716Z,99120.00
2022-10-03T01:41:02.897Z,99128.84
2022-10-03T01:43:42.971Z,99131.25
2022-10-03T01:46:12.529Z,99140.06
2022-10-03T01:49:04.976Z,99140.31
2022-10-03T01:52:12.875Z,99147.25
2022-10-03T01:54:43.726Z,99150.72
2022-10-03T01:57:28.077Z,99143.53
2022-10-03T01:59:58.846Z,99150.47
2022-10-03T02:02:31.475Z,99153.38
2022-10-03T02:05:12.768Z,99163.00
2022-10-03T02:08:03.386Z,99160.31
2022-10-03T02:11:01.626Z,99166.47
2022-10-03T02:13:37.285Z,99173.66
2022-10-03T02:16:22.698Z,99167.78
2022-10-03T02:19:06.191Z,99167.53
2022-10-03T02:21:33.265Z,99162.44
2022-10-03T02:24:40.882Z,99177.63
2022-10-03T02:27:29.082Z,99186.44
2022-10-03T02:30:15.762Z,99180.31
2022-10-03T02:33:17.558Z,99182.16
2022-10-03T02:36:21.445Z,99184.25
2022-10-03T02:38:59.558Z,99188.78
2022-10-03T02:41:39.432Z,99185.31
2022-10-03T02:44:14.945Z,99190.63
2022-10-03T02:47:01.234Z,99191.44
2022-10-03T02:49:52.561Z,99194.09
2022-10-03T02:52:26.345Z,99196.53
2022-10-03T02:55:05.519Z,99198.38
2022-10-03T02:57:47.194Z,99195.72
2022-10-03T03:00:21.019Z,99201.84
2022-10-03T03:03:08.288Z,99203.50
2022-10-03T03:05:42.846Z,99199.19
2022-10-03T03:08:35.614Z,99194.66
2022-10-03T03:11:20.883Z,99198.38
2022-10-03T03:14:09.446Z,99204.53
2022-10-03T03:16:51.039Z,99208.25
2022-10-03T03:19:50.790Z,99198.63
2022-10-03T03:22:17.108Z,99207.44
2022-10-03T03:25:09.992Z,99213.81
2022-10-03T03:28:13.343Z,99211.38
2022-10-03T03:31:16.365Z,99210.03
2022-10-03T03:34:07.043Z,99215.59
2022-10-03T03:36:50.009Z,99219.06
2022-10-03T03:39:44.046Z,99225.69
2022-10-03T03:42:40.206Z,99216.56
2022-10-03T03:45:20.676Z,99222.69
2022-10-03T03:48:06.056Z,99216.56
2022-10-03T03:50:35.099Z,99222.94
2022-10-03T03:53:34.892Z,99213.88
2022-10-03T03:56:20.183Z,99218.19
2022-10-03T03:58:56.741Z,99215.75
2022-10-03T04:01:46.801Z,99220.59
2022-10-03T04:04:41.123Z,99232.06
2022-10-03T04:07:26.201Z,99223.03
2022-10-03T04:10:06.057Z,99231.59
2022-10-03T04:12:36.961Z,99227.88
2022-10-03T04:15:21.559Z,99222.56
2022-10-03T04:18:33.794Z,99229.50
2022-10-03T04:21:23.117Z,99239.91
2022-10-03T04:24:17.361Z,99238.03
2022-10-03T04:26:52.920Z,99240.50
2022-10-03T04:29:37.614Z,99233.53
2022-10-03T04:32:41.559Z,99239.91
2022-10-03T04:35:45.809Z,99239.09
2022-10-03T04:39:00.600Z,99234.81
2022-10-03T04:42:09.349Z,99227.88
2022-10-03T04:44:55.058Z,99238.53
2022-10-03T04:47:53.961Z,99235.06
2022-10-03T04:50:26.027Z,99235.88
2022-10-03T04:53:19.521Z,99238.53
2022-10-03T04:55:54.614Z,99239.34
2022-10-03T04:58:32.101Z,99227.88
2022-10-03T05:01:29.774Z,99238.75
2022-10-03T05:04:11.173Z,99239.59
2022-10-03T05:07:14.326Z,99236.94
2022-10-03T05:10:05.837Z,99246.75
2022-10-03T05:12:58.330Z,99243.28
2022-10-03T05:15:28.039Z,99252.34
2022-10-03T05:18:02.356Z,99253.16
2022-10-03T05:20:52.902Z,99256.06
2022-10-03T05:23:24.829Z,99250.19
2022-10-03T05:26:23.118Z,99257.94
2022-10-03T05:29:05.443Z,99263.25
2022-10-03T05:31:38.786Z,99269.41
2022-10-03T05:34:28.045Z,99270.44
2022-10-03T05:37:15.809Z,99274.72
2022-10-03T05:39:45.669Z,99274.72
2022-10-03T05:42:36.817Z,99280.06
2022-10-03T05:45:21.463Z,99279.25
2022-10-03T05:47:55.355Z,99283.19
2022-10-03T05:51:04.065Z,99285.84
2022-10-03T05:53:42.831Z,99289.03
2022-10-03T05:56:40.899Z,99296.44
2022-10-03T05:59:23.013Z,99301.75
2022-10-03T06:01:59.399Z,99305.72
2022-10-03T06:04:56.905Z,99305.72
2022-10-03T06:07:26.413Z,99309.41
2022-10-03T06:10:36.096Z,99300.16
2022-10-03T06:13:40.082Z,99294.25
2022-10-03T06:16:43.867Z,99306.28
2022-10-03T06:19:10.220Z,99302.34
2022-10-03T06:22:00.823Z,99314.38
2022-10-03T06:24:32.960Z,99307.19
2022-10-03T06:27:10.438Z,99306.16
2022-10-03T06:30:11.685Z,99312.84
2022-10-03T06:32:56.897Z,99311.00
2022-10-03T06:35:32.691Z,99306.47
2022-10-03T06:38:37.041Z,99308.06
2022-10-03T06:41:41.201Z,99313.19
2022-10-03T06:44:29.625Z,99315.06
2022-10-03T06:46:55.970Z,99315.84
2022-10-03T06:49:40.882Z,99307.94
2022-10-03T06:52:19.807Z,99319.97
2022-10-03T06:54:55.227Z,99317.66
2022-10-03T06:57:54.325Z,99321.91
2022-10-03T07:00:22.052Z,99325.16
2022-10-03T07:03:10.215Z,99317.19
2022-10-03T07:06:07.754Z,99325.09
2022-10-03T07:09:00.259Z,99326.41
2022-10-03T07:11:57.290Z,99338.41
2022-10-03T07:14:38.953Z,99337.38
2022-10-03T07:17:30.096Z,99330.25
2022-10-03T07:19:56.701Z,99325.72
2022-10-03T07:23:00.213Z,99324.41
2022-10-03T07:25:32.730Z,99326.16
2022-10-03T07:28:32.385Z,99335.88
2022-10-03T07:31:21.035Z,99336.00
2022-10-03T07:34:09.408Z,99339.94
2022-10-03T07:37:32.407Z,99339.03
2022-10-03T07:40:12.716Z,99340.66
2022-10-03T07:43:16.859Z,99347.94
2022-10-03T07:46:06.092Z,99346.53
2022-10-03T07:49:06.643Z,99352.56
2022-10-03T07:52:11.193Z,99364.97
2022-10-03T07:54:49.426Z,99367.06
2022-10-03T07:57:36.589Z,99362.75
2022-10-03T08:00:12.016Z,99374.63
2022-10-03T08:03:14.605Z,99372.41
2022-10-03T08:06:05.747Z,99386.53
2022-10-03T08:08:54.093Z,99382.00
2022-10-03T08:11:27.651Z,99381.44
2022-10-03T08:14:19.145Z,99387.59
2022-10-03T08:17:01.218Z,99395.47
2022-10-03T08:19:45.609Z,99389.59
2022-10-03T08:22:16.083Z,99391.53
2022-10-03T08:25:16.838Z,99395.00
2022-10-03T08:28:00.503Z,99394.22
2022-10-03T08:30:45.654Z,99393.50
2022-10-03T08:33:42.780Z,99398.50
2022-10-03T08:36:31.023Z,99403.34
2022-10-03T08:39:12.845Z,99396.88
2022-10-03T08:42:18.714Z,99404.09
2022-10-03T08:45:06.354Z,99407.03
2022-10-03T08:48:09.075Z,99407.53
2022-10-03T08:50:54.255Z,99409.91
2022-10-03T08:54:00.455Z,99410.50
2022-10-03T08:56:59.232Z,99412.56
2022-10-03T08:59:51.495Z,99413.00
2022-10-03T09:02:20.963Z,99411.25
2022-10-03T09:05:01.099Z,99414.47
2022-10-03T09:07:34.104Z,99400.75
2022-10-03T09:10:24.853Z,99406.38
2022-10-03T09:13:06.663Z,99410.34
2022-10-03T09:16:14.872Z,99416.56
2022-10-03T09:19:02.958Z,99409.97
2022-10-03T09:21:40.778Z,99415.81
2022-10-03T09:24:21.683Z,99416.03
2022-10-03T09:26:54.132Z,99417.06
2022-10-03T09:29:37.859Z,99420.16
2022-10-03T09:32:13.304Z,99413.81
2022-10-03T09:35:17.425Z,99422.53
2022-10-03T09:37:52.789Z,99419.69
2022-10-03T09:40:57.215Z,99419.25
2022-10-03T09:43:46.329Z,99423.72
2022-10-03T09:46:36.559Z,99417.13
2022-10-03T09:49:33.276Z,99423.63
2022-10-03T09:52:25.156Z,99423.72
2022-10-03T09:55:12.642Z,99423.84
2022-10-03T09:58:10.135Z,99415.06
2022-10-03T10:00:45.683Z,99419.69
2022-10-03T10:03:44.544Z,99419.13
2022-10-03T10:06:55.630Z,99409.09
2022-10-03T10:09:40.893Z,99415.97
2022-10-03T10:12:13.951Z,99414.34
2022-10-03T10:14:50.315Z,99410.13
2022-10-03T10:17:26.346Z,99406.97
2022-10-03T10:20:01.301Z,99407.91
2022-10-03T10:22:49.866Z,99408.28
2022-10-03T10:25:53.227Z,99409.91
2022-10-03T10:28:36.474Z,99405.28
2022-10-03T10:31:11.127Z,99404.47
2022-10-03T10:34:02.056Z,99400.03
2022-10-03T10:36:51.177Z,99401.19
2022-10-03T10:40:02.656Z,99402.13
2022-10-03T10:42:53.408Z,99402.00
2022-10-03T10:45:56.924Z,99396.50
2022-10-03T10:49:03.860Z,99405.41
2022-10-03T10:51:30.416Z,99406.88
2022-10-03T10:54:15.245Z,99402.44
2022-10-03T10:56:44.423Z,99395.03
2022-10-03T10:59:32.406Z,99394.94
2022-10-03T11:02:40.590Z,99400.97
2022-10-03T11:05:25.257Z,99392.19
2022-10-03T11:08:13.910Z,99395.41
2022-10-03T11:11:26.234Z,99391.63
2022-10-03T11:13:55.566Z,99388.69
2022-10-03T11:16:40.584Z,99393.63
2022-10-03T11:19:32.034Z,99396.22
2022-10-03T11:22:33.025Z,99393.91
2022-10-03T11:25:08.595Z,99391.38
2022-10-03T11:27:55.447Z,99390.03
2022-10-03T11:30:43.343Z,99387.50
2022-10-03T11:33:46.898Z,99394.22
2022-10-03T11:36:41.649Z,99384.44
2022-10-03T11:39:27.679Z,99379.44
2022-10-03T11:42:33.406Z,99381.94
2022-10-03T11:45:04.493Z,99379.63
2022-10-03T11:47:45.230Z,99379.72
2022-10-03T11:50:18.932Z,99372.13
2022-10-03T11:53:01.938Z,99381.59
2022-10-03T11:55:59.889Z,99386.13
2022-10-03T11:58:47.478Z,99380.44
2022-10-03T12:01:32.190Z,99386.22
2022-10-03T12:04:32.006Z,99384.25
2022-10-03T12:07:24.725Z,99381.00
2022-10-03T12:10:17.355Z,99386.22
2022-10-03T12:12:46.023Z,99391.34
2022-10-03T12:15:31.365Z,99386.47
2022-10-03T12:18:07.046Z,99388.56
2022-10-03T12:20:40.120Z,99388.00
2022-10-03T12:23:21.717Z,99382.66
2022-10-03T12:25:49.150Z,99385.09
2022-10-03T12:28:20.863Z,99379.53
2022-10-03T12:30:56.908Z,99384.06
2022-10-03T12:33:44.943Z,99377.88
2022-10-03T12:36:16.357Z,99385.34
2022-10-03T12:38:51.137Z,99391.72
2022-10-03T12:41:54.730Z,99391.38
2022-10-03T12:44:40.811Z,99392.69
2022-10-03T12:47:32.303Z,99388.38
2022-10-03T12:50:25.595Z,99392.09
2022-10-03T12:53:08.500Z,99385.97
2022-10-03T12:55:38.326Z,99394.22
2022-10-03T12:58:33.547Z,99388.53
2022-10-03T13:01:09.033Z,99384.25
2022-10-03T13:03:52.091Z,99385.63
2022-10-03T13:07:04.546Z,99379.34
2022-10-03T13:09:38.601Z,99371.34
2022-10-03T13:12:25.531Z,99388.97
2022-10-03T13:15:31.845Z,99376.91
2022-10-03T13:18:19.633Z,99376.91
2022-10-03T13:21:45.625Z,99371.34
2022-10-03T13:24:42.468Z,99371.91
2022-10-03T13:27:20.362Z,99372.25
2022-10-03T13:29:48.745Z,99367.72
2022-10-03T13:32:31.732Z,99359.13
2022-10-03T13:35:20.231Z,99363.66
2022-10-03T13:38:13.265Z,99369.81
2022-10-03T13:40:43.571Z,99369.97
2022-10-03T13:43:13.595Z,99364.28
2022-10-03T13:45:42.305Z,99369.97
2022-10-03T13:48:12.185Z,99363.25
2022-10-03T13:50:52.875Z,99360.56
2022-10-03T13:53:35.914Z,99358.16
2022-10-03T13:56:11.612Z,99351.75
2022-10-03T13:58:45.565Z,99355.22
2022-10-03T14:01:24.223Z,99346.69
2022-10-03T14:04:28.836Z,99356.28
2022-10-03T14:07:15.535Z,99356.53
2022-10-03T14:09:57.820Z,99362.44
2022-10-03T14:12:54.766Z,99363.75
2022-10-03T14:15:39.319Z,99360.25
2022-10-03T14:18:15.477Z,99357.59
2022-10-03T14:21:00.970Z,99360.41
2022-10-03T14:24:05.577Z,99363.56
2022-10-03T14:26:41.065Z,99361.13
2022-10-03T14:29:10.505Z,99351.50
2022-10-03T14:31:56.263Z,99359.50
2022-10-03T14:34:42.473Z,99369.34
2022-10-03T14:37:24.248Z,99359.16
2022-10-03T14:39:58.848Z,99358.59
2022-10-03T14:42:32.351Z,99355.13
2022-10-03T14:45:29.586Z,99351.88
2022-10-03T14:48:20.423Z,99349.72
2022-10-03T14:50:48.765Z,99359.78
2022-10-03T14:53:20.446Z,99354.94
2022-10-03T14:56:05.125Z,99358.88
2022-10-03T14:58:44.099Z,99362.59
2022-10-03T15:01:14.771Z,99354.84
2022-10-03T15:04:04.273Z,99351.34
2022-10-03T15:06:54.663Z,99347.88
2022-10-03T15:09:40.841Z,99356.13
2022-10-03T15:12:20.078Z,99344.66
2022-10-03T15:14:56.406Z,99343.59
2022-10-03T15:17:24.891Z,99340.47
2022-10-03T15:19:55.352Z,99338.63
2022-10-03T15:22:36.225Z,99334.91
2022-10-03T15:25:13.859Z,99337.91
2022-10-03T15:27:41.204Z,99337.66
2022-10-03T15:30:08.173Z,99336.03
2022-10-03T15:32:37.968Z,99333.38
2022-10-03T15:35:05.118Z,99334.97
2022-10-03T15:37:37.317Z,99336.94
2022-10-03T15:40:12.449Z,99343.06
2022-10-03T15:43:03.137Z,99341.47
2022-10-03T15:45:32.195Z,99345.19
2022-10-03T15:48:00.533Z,99346.88
2022-10-03T15:50:30.839Z,99346.00
2022-10-03T15:53:24.087Z,99338.69
2022-10-03T15:55:53.107Z,99320.69
2022-10-03T15:58:25.390Z,99321.22
2022-10-03T16:01:08.676Z,99317.25
2022-10-03T16:03:49.749Z,99318.91
2022-10-03T16:06:32.324Z,99316.22
2022-10-03T16:09:11.031Z,99306.56
2022-10-03T16:11:55.799Z,99300.06
2022-10-03T16:14:23.254Z,99300.06
2022-10-03T16:16:55.673Z,99307.09
2022-10-03T16:19:33.739Z,99306.31
2022-10-03T16:22:19.237Z,99305.50
2022-10-03T16:24:52.162Z,99307.94
2022-10-03T16:27:20.990Z,99299.03
2022-10-03T16:30:14.803Z,99293.44
2022-10-03T16:32:55.679Z,99294.50
2022-10-03T16:35:43.913Z,99295.22
2022-10-03T16:38:24.415Z,99297.91
2022-10-03T16:40:55.779Z,99290.16
2022-10-03T16:43:22.326Z,99293.88
2022-10-03T16:45:49.099Z,99284.81
2022-10-03T16:48:47.805Z,99289.09
2022-10-03T16:51:22.040Z,99285.63
2022-10-03T16:53:50.636Z,99288.91
2022-10-03T16:56:19.666Z,99292.38
2022-10-03T16:58:53.939Z,99291.28
2022-10-03T17:01:33.406Z,99296.69
2022-10-03T17:04:16.113Z,99295.03
2022-10-03T17:06:45.751Z,99297.66
2022-10-03T17:09:28.346Z,99299.50
2022-10-03T17:11:58.916Z,99294.56
2022-10-03T17:14:28.184Z,99303.16
2022-10-03T17:17:08.732Z,99296.50
2022-10-03T17:20:08.145Z,99299.50
2022-10-03T17:22:41.262Z,99300.84
2022-10-03T17:25:35.953Z,99304.84
2022-10-03T17:28:04.348Z,99308.56
2022-10-03T17:30:47.675Z,99310.97
2022-10-03T17:33:22.550Z,99304.25
2022-10-03T17:36:32.652Z,99305.31
2022-10-03T17:39:03.684Z,99298.38
2022-10-03T17:42:09.051Z,99301.84
2022-10-03T17:44:59.583Z,99300.50
2022-10-03T17:47:48.551Z,99302.44
2022-10-03T17:50:20.730Z,99302.44
2022-10-03T17:52:47.254Z,99303.38
2022-10-03T17:55:27.420Z,99303.06
2022-10-03T17:57:55.681Z,99300.50
2022-10-03T18:00:24.101Z,99299.97
2022-10-03T18:02:54.907Z,99304.66
2022-10-03T18:05:28.213Z,99296.16
2022-10-03T18:07:55.010Z,99301.31
2022-10-03T18:10:27.393Z,99299.03
2022-10-03T18:12:55.727Z,99304.78
2022-10-03T18:15:42.361Z,99307.19
2022-10-03T18:18:48.316Z,99308.38
2022-10-03T18:21:32.535Z,99304.56
2022-10-03T18:24:12.831Z,99308.56
2022-10-03T18:26:47.788Z,99310.91
2022-10-03T18:29:32.665Z,99302.16
2022-10-03T18:32:09.951Z,99304.50
2022-10-03T18:34:47.228Z,99297.81
2022-10-03T18:37:23.777Z,99298.25
2022-10-03T18:39:54.405Z,99294.50
2022-10-03T18:42:23.837Z,99296.13
2022-10-03T18:44:50.276Z,99297.44
2022-10-03T18:47:17.341Z,99291.53
2022-10-03T18:49:45.566Z,99298.97
2022-10-03T18:52:19.434Z,99287.75
2022-10-03T18:55:34.646Z,99288.56
2022-10-03T18:58:03.133Z,99284.28
2022-10-03T19:00:30.182Z,99283.69
2022-10-03T19:03:08.698Z,99285.81
2022-10-03T19:08:11.251Z,99287.91
2022-10-03T19:10:56.598Z,99286.56
2022-10-03T19:13:38.262Z,99284.09
2022-10-03T19:16:21.993Z,99279.56
2022-10-03T19:19:11.030Z,99282.50
2022-10-03T19:21:38.969Z,99275.81
2022-10-03T19:24:13.963Z,99282.97
2022-10-03T19:26:48.774Z,99276.03
2022-10-03T19:29:36.361Z,99281.38
2022-10-03T19:32:08.692Z,99282.97
2022-10-03T19:34:37.781Z,99280.81
2022-10-03T19:37:07.556Z,99269.97
2022-10-03T19:39:34.038Z,99280.97
2022-10-03T19:42:30.273Z,99268.91
2022-10-03T19:44:57.312Z,99278.28
2022-10-03T19:47:38.050Z,99275.63
2022-10-03T19:50:20.963Z,99268.16
2022-10-03T19:52:50.613Z,99276.16
2022-10-03T19:55:27.571Z,99263.66
2022-10-03T19:58:04.000Z,99265.75
2022-10-03T20:00:37.510Z,99267.59
2022-10-03T20:03:21.525Z,99264.13
2022-10-03T20:06:00.191Z,99266.56
2022-10-03T20:08:44.375Z,99271.09
2022-10-03T20:11:16.086Z,99279.56
2022-10-03T20:13:43.835Z,99278.47
2022-10-03T20:16:20.672Z,99282.16
2022-10-03T20:18:49.250Z,99278.00
2022-10-03T20:21:18.540Z,99282.63
2022-10-03T20:23:45.533Z,99280.75
2022-10-03T20:26:22.202Z,99272.41
2022-10-03T20:28:56.502Z,99272.66
2022-10-03T20:31:24.060Z,99267.25
2022-10-03T20:33:52.281Z,99269.94
2022-10-03T20:36:26.005Z,99270.16
2022-10-03T20:39:12.317Z,99274.13
2022-10-03T20:41:42.030Z,99267.41
2022-10-03T20:44:21.658Z,99269.75
2022-10-03T20:46:49.581Z,99261.66
2022-10-03T20:49:28.182Z,99260.28
2022-10-03T20:51:54.511Z,99266.44
2022-10-03T20:54:22.246Z,99256.47
2022-10-03T20:57:15.532Z,99273.28
2022-10-03T20:59:45.490Z,99271.44
2022-10-03T21:02:38.192Z,99273.47
2022-10-03T21:05:06.101Z,99268.63
2022-10-03T21:07:35.065Z,99270.13
2022-10-03T21:10:10.001Z,99258.00
2022-10-03T21:12:41.208Z,99264.00
2022-10-03T21:15:13.117Z,99259.56
2022-10-03T21:17:41.723Z,99260.75
2022-10-03T21:20:12.986Z,99261.09
2022-10-03T21:22:39.452Z,99266.97
2022-10-03T21:25:11.976Z,99265.69
2022-10-03T21:27:38.567Z,99255.13
2022-10-03T21:30:18.730Z,99257.53
2022-10-03T21:33:10.903Z,99249.31
2022-10-03T21:35:40.973Z,99251.97
2022-10-03T21:38:30.893Z,99244.94
2022-10-03T21:41:07.801Z,99252.13
2022-10-03T21:43:40.146Z,99261.19
2022-10-03T21:46:28.909Z,99258.44
2022-10-03T21:49:32.930Z,99257.53
2022-10-03T21:52:14.702Z,99263.69
2022-10-03T21:55:05.521Z,99256.16
2022-10-03T21:57:39.373Z,99248.09
2022-10-03T22:00:14.325Z,99244.59
2022-10-03T22:02:50.087Z,99244.53
2022-10-03T22:05:31.246Z,99241.06
2022-10-03T22:07:57.701Z,99243.66
2022-10-03T22:10:28.188Z,99234.25
2022-10-03T22:12:59.647Z,99235.31
2022-10-03T22:15:56.766Z,99238.47
2022-10-03T22:18:23.242Z,99234.75
2022-10-03T22:21:18.401Z,99229.91
2022-10-03T22:23:58.947Z,99219.56
2022-10-03T22:26:46.325Z,99217.47
2022-10-03T22:29:23.835Z,99215.13
2022-10-03T22:32:20.674Z,99218.84
2022-10-03T22:34:52.883Z,99218.59
2022-10-03T22:37:19.370Z,99217.28
2022-10-03T22:39:48.339Z,99218.34
2022-10-03T22:42:14.937Z,99213.50
2022-10-03T22:44:43.540Z,99197.72
2022-10-03T22:47:21.573Z,99201.94
2022-10-03T22:49:48.177Z,99213.19
2022-10-03T22:52:21.224Z,99202.19
2022-10-03T22:54:47.675Z,99205.91
2022-10-03T22:57:14.129Z,99200.81
2022-10-03T22:59:47.778Z,99194.09
2022-10-03T23:02:14.244Z,99198.63
2022-10-03T23:04:44.782Z,99198.63
2022-10-03T23:07:46.469Z,99205.56
2022-10-03T23:10:38.790Z,99195.38
2022-10-03T23:13:28.562Z,99201.56
2022-10-03T23:15:59.678Z,99207.78
2022-10-03T23:18:43.754Z,99196.53
2022-10-03T23:21:11.010Z,99193.47
2022-10-03T23:24:04.957Z,99192.66
2022-10-03T23:26:53.190Z,99208.91
2022-10-03T23:29:20.195Z,99210.97
2022-10-03T23:31:56.402Z,99205.44
2022-10-03T23:34:37.931Z,99203.00
2022-10-03T23:37:26.028Z,99197.66
2022-10-03T23:39:55.355Z,99199.50
2022-10-03T23:42:30.907Z,99195.97
2022-10-03T23:44:57.648Z,99195.25
2022-10-03T23:47:30.577Z,99189.09
2022-10-03T23:49:57.033Z,99203.00
2022-10-03T23:52:26.922Z,99188.53
2022-10-03T23:54:54.309Z,99192.31
2022-10-03T23:57:20.804Z,99196.84
2022-10-03T23:59:47.259Z,99190.97
